Strona główna
METAR-TAF:

METAR-TAF

Lotnisko :

Port lotniczy Pampeluna

Pampeluna, Hiszpania

Szerokość geograficzna: 42-46N, Długość geograficzna: 001-38W, wysokość: 459 m

Aktualna obserwacja pogody

Raport powstał 19 minut temu, godzina 10:30 UTC
Wiatr 2 kt z kierunków zmiennych
Temperatura 8°C
Wilgotność 61%
Ciśnienie 1028 hPa
Widzialność 10 km lub więcej
Brak chmur poniżej 1500 m i brak chmur cumulonimbus

METAR: LEPP 241030Z VRB02KT CAVOK 08/01 Q1028

czas: 11:49 (10:49 UTC)

Prognoza

Raport powstał 2 godziny i 49 minut temu, godzina 08:00 UTC
Prognoza ważna od 24 godzina 09 UTC do 25 godzina 09 UTC
Wiatr 3 kt z kierunków zmiennych
Widzialność 10 km lub więcej
Brak chmur poniżej 1500 m i brak chmur cumulonimbus
Przejściowo
od 24 godzina 13 UTC do 24 godzina 18 UTC
Wiatr 10 kt od północno-północny zachód

TAF: LEPP 240800Z 2409/2509 VRB03KT CAVOK TX19/2415Z TN01/2504Z TEMPO 2413/2418 34010KT

Obserwacja i prognoza pogody dla ponad 4000 lotnisk (raport METAR i TAF).

Dostępne stacje oznaczono żółtymi i czerwonymi punktami na mapie.

Najedź kursorem aby zobaczyć nazwę stacji.

Kliknij aby zobaczyć obserwacje i prognozy pogody.

Aby zmienić mapę: kliknij na zielony przycisk z czarnym krzyżykiem, aby powiększyć; na zielony przycisk z myślnikiem, aby pomniejszyć; na zielone strzałki, aby przejść do map sąsiednich.


METAR-TAF: